Time;durP1;ratioP1;P1;durP2;ratioP2;P2;SDS_P1;SDS_P2;PMS_P1;PMS_P2;Temp;Humidity;BMP_temperature;BMP_pressure;BME280_temperature;BME280_humidity;BME280_pressure;Samples;Min_cycle;Max_cycle;Signal;HPM_P1;HPM_P2
2022/10/19 00:07:02;;;;;;;0.20;0.00;;;19.10;99.90;;;;;;25643685;23;20371;-81
2022/10/19 00:17:06;;;;;;;0.20;0.00;;;19.20;99.90;;;;;;25589988;23;20387;-82
2022/10/19 00:27:11;;;;;;;0.20;0.00;;;19.10;99.90;;;;;;25590317;23;20379;-83
2022/10/19 00:37:16;;;;;;;0.20;0.00;;;19.10;99.90;;;;;;25614741;23;20372;-80
2022/10/19 00:47:24;;;;;;;0.20;0.00;;;19.10;99.90;;;;;;25642640;23;20368;-80
2022/10/19 00:57:30;;;;;;;0.20;0.00;;;19.20;99.90;;;;;;25612981;23;20407;-80
2022/10/19 01:07:35;;;;;;;0.20;0.00;;;19.10;99.90;;;;;;25617042;23;20388;-82
2022/10/19 01:17:50;;;;;;;0.20;0.00;;;18.90;99.90;;;;;;25641443;23;20372;-82
2022/10/19 01:28:07;;;;;;;0.20;0.00;;;18.90;99.90;;;;;;25639095;23;20391;-81
2022/10/19 01:38:23;;;;;;;0.20;0.00;;;18.80;99.90;;;;;;25614373;23;20367;-82
2022/10/19 01:48:33;;;;;;;0.20;0.00;;;18.70;99.90;;;;;;25615798;23;20410;-83
2022/10/19 01:58:41;;;;;;;0.20;0.03;;;18.70;99.90;;;;;;25613468;23;20376;-79
2022/10/19 02:08:47;;;;;;;0.20;0.00;;;18.60;99.90;;;;;;25639549;23;20382;-78
2022/10/19 02:18:55;;;;;;;0.20;0.00;;;18.50;99.90;;;;;;25612243;23;20371;-80
2022/10/19 02:28:59;;;;;;;0.20;0.00;;;18.50;99.90;;;;;;25639363;23;20375;-78
2022/10/19 02:39:06;;;;;;;0.20;0.00;;;18.50;99.90;;;;;;25613967;23;20379;-79
2022/10/19 02:49:11;;;;;;;0.20;0.00;;;18.40;99.90;;;;;;25645666;23;20421;-82
2022/10/19 02:59:17;;;;;;;0.20;0.00;;;18.40;99.90;;;;;;25643675;23;20384;-81
2022/10/19 03:34:03;;;;;;;0.20;0.00;;;18.40;99.90;;;;;;26298471;22;20370;-85
2022/10/19 03:44:09;;;;;;;0.20;0.03;;;18.40;99.90;;;;;;26405301;22;20357;-83
2022/10/19 03:54:16;;;;;;;0.20;0.00;;;18.40;99.90;;;;;;26430236;22;20366;-83
2022/10/19 04:04:20;;;;;;;0.20;0.00;;;18.30;99.90;;;;;;26427145;22;20353;-84
2022/10/19 04:14:25;;;;;;;0.20;0.00;;;18.20;99.90;;;;;;26407133;22;20364;-84
2022/10/19 04:24:41;;;;;;;0.20;0.00;;;18.20;99.90;;;;;;26400884;22;20354;-84
2022/10/19 04:34:46;;;;;;;0.20;0.00;;;18.30;99.90;;;;;;26425998;22;20486;-84
2022/10/19 04:44:50;;;;;;;0.20;0.00;;;18.40;99.90;;;;;;26426640;22;20357;-82
2022/10/19 04:54:55;;;;;;;0.20;0.00;;;18.30;99.90;;;;;;26397141;22;20361;-84
2022/10/19 05:04:59;;;;;;;0.20;0.00;;;18.40;99.90;;;;;;26424976;22;20364;-80
2022/10/19 05:15:05;;;;;;;0.20;0.00;;;18.20;99.90;;;;;;26426557;22;20373;-83
2022/10/19 05:25:09;;;;;;;0.20;0.00;;;18.40;99.90;;;;;;26397848;22;20389;-85
2022/10/19 05:35:14;;;;;;;0.20;0.00;;;18.30;99.90;;;;;;26428275;22;20432;-84
2022/10/19 05:45:23;;;;;;;0.20;0.00;;;18.30;99.90;;;;;;26423082;22;20419;-85
2022/10/19 05:55:29;;;;;;;0.20;0.00;;;18.40;99.90;;;;;;26393796;22;20365;-84
2022/10/19 06:05:32;;;;;;;0.20;0.00;;;18.30;99.90;;;;;;26389551;22;20353;-85
2022/10/19 06:15:39;;;;;;;0.20;0.00;;;18.50;99.90;;;;;;26400387;22;20373;-86
2022/10/19 06:25:43;;;;;;;0.20;0.00;;;19.00;99.90;;;;;;26433515;22;20354;-82
2022/10/19 06:35:48;;;;;;;0.20;0.00;;;19.30;99.90;;;;;;26401831;22;20365;-83
2022/10/19 06:45:51;;;;;;;0.20;0.00;;;19.50;99.90;;;;;;26430708;22;20358;-83
2022/10/19 06:55:59;;;;;;;0.20;0.00;;;20.10;99.90;;;;;;26402982;22;20365;-84
2022/10/19 07:06:05;;;;;;;0.20;0.00;;;20.60;99.90;;;;;;26400968;22;20354;-80
2022/10/19 07:16:12;;;;;;;0.20;0.00;;;20.90;99.90;;;;;;26397785;22;20372;-80
2022/10/19 07:26:26;;;;;;;0.20;0.00;;;21.30;99.90;;;;;;26426595;22;20971;-84
2022/10/19 07:36:34;;;;;;;0.20;0.00;;;21.60;99.90;;;;;;26399429;22;20403;-80
2022/10/19 07:46:38;;;;;;;0.20;0.00;;;21.60;99.90;;;;;;26399306;22;20364;-81
2022/10/19 07:56:43;;;;;;;0.20;0.00;;;21.60;99.90;;;;;;26429548;22;20372;-80
2022/10/19 08:06:47;;;;;;;0.20;0.00;;;22.00;99.90;;;;;;26427785;22;20430;-81
2022/10/19 08:16:52;;;;;;;0.20;0.00;;;22.50;99.90;;;;;;26397640;22;20369;-82
2022/10/19 08:26:57;;;;;;;0.20;0.00;;;22.60;99.90;;;;;;26425914;22;20366;-75
2022/10/19 08:37:03;;;;;;;0.20;0.00;;;22.90;99.90;;;;;;26395775;22;20464;-77
2022/10/19 08:47:38;;;;;;;0.20;0.00;;;23.30;99.90;;;;;;26420165;22;20365;-76
2022/10/19 08:57:54;;;;;;;0.20;0.00;;;23.70;99.90;;;;;;26417682;22;20413;-77
2022/10/19 09:07:59;;;;;;;0.20;0.05;;;24.20;99.90;;;;;;26422240;22;20440;-77
2022/10/19 09:18:09;;;;;;;0.20;0.00;;;23.90;99.90;;;;;;26421593;22;20466;-76
2022/10/19 09:28:27;;;;;;;0.20;0.00;;;24.30;99.90;;;;;;26421659;22;20382;-79
2022/10/19 09:38:42;;;;;;;0.20;0.10;;;24.50;99.90;;;;;;26421577;22;20365;-75
2022/10/19 09:48:50;;;;;;;0.20;0.00;;;24.50;99.90;;;;;;26366333;22;20358;-80
2022/10/19 09:58:57;;;;;;;0.20;0.00;;;24.80;99.90;;;;;;26422464;22;20437;-79
2022/10/19 10:09:02;;;;;;;0.20;0.00;;;24.90;99.90;;;;;;26420730;22;20353;-77
2022/10/19 10:19:11;;;;;;;0.20;0.00;;;24.90;99.90;;;;;;26423137;22;20365;-77
2022/10/19 10:29:21;;;;;;;0.20;0.00;;;25.50;99.90;;;;;;26421344;22;20369;-76
2022/10/19 10:39:27;;;;;;;0.20;0.08;;;25.40;99.90;;;;;;26419996;22;20391;-76
2022/10/19 10:49:35;;;;;;;0.20;0.00;;;25.70;99.90;;;;;;26393024;22;20358;-78
2022/10/19 10:59:51;;;;;;;0.20;0.00;;;26.10;99.90;;;;;;26394953;22;20433;-77
2022/10/19 11:09:58;;;;;;;0.20;0.00;;;26.80;99.90;;;;;;26428488;22;20357;-78
2022/10/19 11:20:06;;;;;;;0.20;0.00;;;26.80;99.90;;;;;;26425100;22;20361;-73
2022/10/19 11:30:14;;;;;;;0.20;0.00;;;27.40;99.90;;;;;;26429258;22;20349;-75
2022/10/19 11:40:25;;;;;;;0.20;0.00;;;27.50;99.90;;;;;;26425699;22;20365;-75
2022/10/19 11:50:41;;;;;;;0.20;0.00;;;27.40;99.90;;;;;;26395938;22;20375;-78
2022/10/19 12:01:03;;;;;;;0.20;0.00;;;27.80;99.90;;;;;;26399676;22;20365;-76
2022/10/19 12:11:22;;;;;;;0.20;0.00;;;27.50;99.90;;;;;;26424150;22;20361;-78
2022/10/19 12:21:31;;;;;;;0.20;0.00;;;27.60;99.90;;;;;;26423555;22;20429;-80
2022/10/19 12:31:36;;;;;;;0.20;0.00;;;27.40;99.90;;;;;;26398169;22;20365;-78
2022/10/19 12:41:45;;;;;;;0.20;0.00;;;26.70;99.90;;;;;;26414951;22;20402;-77
2022/10/19 12:51:50;;;;;;;0.20;0.00;;;26.70;99.90;;;;;;26397393;22;20354;-75
2022/10/19 13:01:56;;;;;;;0.20;0.00;;;26.60;99.90;;;;;;26423033;22;20961;-76
2022/10/19 13:12:37;;;;;;;0.20;0.00;;;25.80;99.90;;;;;;26424518;22;20373;-78
2022/10/19 13:22:44;;;;;;;0.20;0.00;;;25.20;99.90;;;;;;26394823;22;20484;-76
2022/10/19 13:32:48;;;;;;;0.20;0.00;;;25.00;99.90;;;;;;26422468;22;20399;-76
2022/10/19 13:42:59;;;;;;;0.20;0.00;;;25.60;99.90;;;;;;26421437;22;20445;-75
2022/10/19 13:53:22;;;;;;;0.20;0.00;;;25.60;99.90;;;;;;26420756;22;20456;-74
2022/10/19 14:03:39;;;;;;;0.20;0.00;;;25.60;99.90;;;;;;26418499;22;20361;-75
2022/10/19 14:13:43;;;;;;;0.20;0.03;;;26.10;99.90;;;;;;26363344;22;20424;-75
2022/10/19 14:23:50;;;;;;;0.20;0.00;;;27.30;99.90;;;;;;26416169;22;20377;-77
2022/10/19 14:33:58;;;;;;;0.20;0.00;;;29.00;99.90;;;;;;26393149;22;20400;-76
2022/10/19 14:44:39;;;;;;;0.20;0.00;;;29.00;99.90;;;;;;26422843;22;20436;-78
2022/10/19 14:54:47;;;;;;;0.20;0.00;;;27.50;99.90;;;;;;26397366;22;20354;-78
2022/10/19 15:04:54;;;;;;;0.20;0.00;;;28.60;99.90;;;;;;26398466;22;20376;-77
2022/10/19 15:14:58;;;;;;;0.20;0.00;;;27.60;99.90;;;;;;26422054;22;20354;-79
2022/10/19 15:25:28;;;;;;;0.20;0.00;;;26.80;99.90;;;;;;26423375;22;20357;-79
2022/10/19 15:35:34;;;;;;;0.20;0.00;;;26.20;99.90;;;;;;26418721;22;20373;-78
2022/10/19 15:45:40;;;;;;;0.20;0.00;;;26.00;99.90;;;;;;26424661;22;20350;-76
2022/10/19 15:55:44;;;;;;;0.20;0.00;;;25.70;99.90;;;;;;26426115;22;20385;-78
2022/10/19 16:05:50;;;;;;;0.20;0.10;;;25.30;99.90;;;;;;26424650;22;20421;-78
2022/10/19 16:16:03;;;;;;;0.20;0.00;;;24.90;99.90;;;;;;26424462;22;20384;-75
2022/10/19 16:26:16;;;;;;;0.20;0.00;;;24.70;99.90;;;;;;26422389;22;20390;-76
2022/10/19 16:36:20;;;;;;;0.20;0.00;;;24.20;99.90;;;;;;26420859;22;20470;-77
2022/10/19 16:46:26;;;;;;;0.20;0.00;;;24.20;99.90;;;;;;26423130;22;20399;-76
2022/10/19 16:56:32;;;;;;;0.20;0.00;;;23.90;99.90;;;;;;26420537;22;20373;-74
2022/10/19 17:06:37;;;;;;;0.20;0.00;;;23.60;99.90;;;;;;26390248;22;20345;-76
2022/10/19 17:16:41;;;;;;;0.20;0.00;;;23.50;99.90;;;;;;26420068;22;20369;-79
2022/10/19 17:26:47;;;;;;;0.20;0.00;;;23.40;99.90;;;;;;26421295;22;20361;-74
2022/10/19 17:36:51;;;;;;;0.20;0.00;;;23.30;99.90;;;;;;26421146;22;20393;-76
2022/10/19 17:46:57;;;;;;;0.20;0.00;;;23.30;99.90;;;;;;26392264;22;20745;-73
2022/10/19 17:57:02;;;;;;;0.20;0.00;;;23.40;99.90;;;;;;26390972;22;20394;-77
2022/10/19 18:07:09;;;;;;;0.20;0.00;;;23.40;99.90;;;;;;26422094;22;20369;-77
2022/10/19 18:17:13;;;;;;;0.20;0.00;;;23.20;99.90;;;;;;26429665;22;20365;-76
2022/10/19 18:27:19;;;;;;;0.20;0.00;;;22.80;99.90;;;;;;26427148;22;20349;-78
2022/10/19 18:37:23;;;;;;;0.20;0.10;;;22.20;99.90;;;;;;26426171;22;20388;-77
2022/10/19 18:47:30;;;;;;;0.20;0.00;;;22.00;99.90;;;;;;26401048;22;20358;-79
2022/10/19 18:57:35;;;;;;;0.20;0.00;;;21.80;99.90;;;;;;26429072;22;20368;-77
2022/10/19 19:07:47;;;;;;;0.20;0.00;;;21.60;99.90;;;;;;26428670;22;20369;-77
2022/10/19 19:17:55;;;;;;;0.20;0.00;;;21.40;99.90;;;;;;26393494;22;20442;-77
2022/10/19 19:28:12;;;;;;;0.20;0.00;;;21.30;99.90;;;;;;26423177;22;20369;-78
2022/10/19 19:38:24;;;;;;;0.20;0.00;;;21.20;99.90;;;;;;26396818;22;20377;-77
2022/10/19 19:48:32;;;;;;;0.20;0.00;;;21.20;99.90;;;;;;26398014;22;20365;-77
2022/10/19 19:58:38;;;;;;;0.20;0.00;;;21.00;99.90;;;;;;26422033;22;20377;-78
2022/10/19 20:08:46;;;;;;;0.20;0.00;;;20.80;99.90;;;;;;26422993;22;20373;-78
2022/10/19 20:18:59;;;;;;;0.20;0.00;;;20.80;99.90;;;;;;26424832;22;20464;-78
2022/10/19 20:29:11;;;;;;;0.20;0.00;;;20.70;99.90;;;;;;26378661;22;20376;-77
2022/10/19 20:39:16;;;;;;;0.20;0.00;;;20.50;99.90;;;;;;26427678;22;20366;-80
2022/10/19 20:49:22;;;;;;;0.20;0.00;;;20.50;99.90;;;;;;26399905;22;20353;-77
2022/10/19 20:59:29;;;;;;;0.20;0.00;;;20.60;99.90;;;;;;26424770;22;20447;-80
2022/10/19 21:09:35;;;;;;;0.20;0.00;;;20.30;99.90;;;;;;26398788;22;20349;-81
2022/10/19 21:19:41;;;;;;;0.20;0.00;;;20.50;99.90;;;;;;26424740;22;20452;-80
2022/10/19 21:29:48;;;;;;;0.20;0.00;;;20.30;99.90;;;;;;26394721;22;20384;-79
2022/10/19 21:39:52;;;;;;;0.20;0.00;;;20.30;99.90;;;;;;26424214;22;20369;-79
2022/10/19 21:49:58;;;;;;;0.20;0.00;;;20.30;99.90;;;;;;26398188;22;20360;-78
2022/10/19 22:00:02;;;;;;;0.20;0.00;;;20.30;99.90;;;;;;26425228;22;20366;-80
2022/10/19 22:10:08;;;;;;;12.02;11.27;;;20.20;99.90;;;;;;26424790;22;20374;-82
2022/10/19 22:20:12;;;;;;;0.20;0.00;;;20.10;99.90;;;;;;26425622;22;20446;-81
2022/10/19 22:30:18;;;;;;;0.20;0.00;;;20.10;99.90;;;;;;26424032;22;20387;-82
2022/10/19 22:40:21;;;;;;;0.20;0.00;;;19.80;99.90;;;;;;26425017;22;20427;-82
2022/10/19 22:50:26;;;;;;;0.20;0.00;;;19.70;99.90;;;;;;26424803;22;20356;-83
2022/10/19 23:00:31;;;;;;;0.20;0.00;;;19.60;99.90;;;;;;26405961;22;20392;-81
2022/10/19 23:10:36;;;;;;;0.20;0.00;;;19.50;99.90;;;;;;26430884;22;20354;-80
2022/10/19 23:20:40;;;;;;;0.20;0.00;;;19.60;99.90;;;;;;26432264;22;20345;-83
2022/10/19 23:30:46;;;;;;;0.20;0.00;;;19.70;99.90;;;;;;26432608;22;20360;-82
2022/10/19 23:40:49;;;;;;;0.20;0.00;;;19.80;99.90;;;;;;26432697;22;20373;-80
2022/10/19 23:51:02;;;;;;;0.20;0.00;;;20.00;99.90;;;;;;26432533;22;20368;-84
